Time;durP1;ratioP1;P1;durP2;ratioP2;P2;SDS_P1;SDS_P2;PMS_P1;PMS_P2;Temp;Humidity;BMP_temperature;BMP_pressure;BME280_temperature;BME280_humidity;BME280_pressure;Samples;Min_cycle;Max_cycle;Signal;HPM_P1;HPM_P2
2024/01/27 00:00:22;;;;;;;14.70;5.03;;;;;;;3.79;78.82;103402.03;5068733;28;20035;-75
2024/01/27 00:02:47;;;;;;;12.63;4.07;;;;;;;3.77;79.32;103395.84;5057043;28;20036;-75
2024/01/27 00:05:13;;;;;;;13.23;4.80;;;;;;;3.75;79.69;103397.56;5055034;28;20071;-75
2024/01/27 00:07:38;;;;;;;14.32;4.85;;;;;;;3.74;79.52;103393.16;5056354;28;20021;-76
2024/01/27 00:10:04;;;;;;;17.08;4.57;;;;;;;3.83;78.92;103392.56;5067705;28;20418;-75
2024/01/27 00:12:29;;;;;;;14.93;4.63;;;;;;;3.79;79.05;103393.31;5060130;28;20032;-75
2024/01/27 00:14:55;;;;;;;16.35;4.47;;;;;;;3.79;79.06;103391.56;5056295;28;20017;-75
2024/01/27 00:17:23;;;;;;;11.98;4.85;;;;;;;3.81;78.79;103391.59;5058696;28;20060;-76
2024/01/27 00:19:50;;;;;;;17.77;4.65;;;;;;;3.64;79.55;103385.91;5057956;28;20491;-75
2024/01/27 00:22:16;;;;;;;13.13;4.70;;;;;;;3.62;80.07;103382.34;5061585;28;20060;-76
2024/01/27 00:24:42;;;;;;;10.43;4.32;;;;;;;3.64;79.55;103382.38;5058860;28;20067;-75
2024/01/27 00:27:08;;;;;;;18.65;5.25;;;;;;;3.67;79.31;103378.13;5060880;28;20032;-75
2024/01/27 00:29:33;;;;;;;14.18;4.97;;;;;;;3.71;79.33;103377.38;5070241;28;20035;-75
2024/01/27 00:31:58;;;;;;;13.57;5.75;;;;;;;3.61;80.02;103383.19;5065470;28;20524;-75
2024/01/27 00:34:25;;;;;;;18.70;5.90;;;;;;;3.74;79.13;103393.16;5065204;28;20057;-75
2024/01/27 00:36:50;;;;;;;12.10;5.68;;;;;;;3.68;79.11;103385.13;5064800;28;20423;-75
2024/01/27 00:39:16;;;;;;;10.85;5.25;;;;;;;3.70;78.64;103403.50;5063825;28;20024;-75
2024/01/27 00:41:42;;;;;;;19.13;5.20;;;;;;;3.61;79.08;103405.84;5059492;28;20035;-75
2024/01/27 00:44:07;;;;;;;11.90;4.68;;;;;;;3.55;79.51;103404.81;5057432;28;20078;-76
2024/01/27 00:46:32;;;;;;;11.32;4.70;;;;;;;3.54;79.50;103405.66;5055392;28;20057;-75
2024/01/27 00:48:58;;;;;;;12.20;4.88;;;;;;;3.57;79.60;103407.47;5056764;28;20070;-75
2024/01/27 00:51:23;;;;;;;13.60;5.75;;;;;;;3.53;79.95;103411.72;5062351;28;20086;-76
2024/01/27 00:53:48;;;;;;;11.82;5.45;;;;;;;3.67;79.77;103408.63;5060885;28;20162;-75
2024/01/27 00:56:14;;;;;;;11.98;5.07;;;;;;;3.63;79.51;103414.59;5061711;28;20024;-76
2024/01/27 00:58:39;;;;;;;12.00;5.45;;;;;;;3.67;79.46;103412.13;5063666;28;20098;-78
2024/01/27 01:01:05;;;;;;;11.30;5.32;;;;;;;3.72;79.14;103407.03;5067094;28;20123;-78
2024/01/27 01:03:30;;;;;;;11.68;5.05;;;;;;;3.73;79.03;103414.94;5066142;28;20029;-78
2024/01/27 01:05:55;;;;;;;10.73;4.68;;;;;;;3.70;78.92;103408.72;5064051;28;20028;-78
2024/01/27 01:08:21;;;;;;;12.80;5.30;;;;;;;3.64;78.78;103398.06;5072086;28;20028;-78
2024/01/27 01:10:46;;;;;;;15.23;5.63;;;;;;;3.58;77.94;103410.13;5080701;28;20025;-78
2024/01/27 01:13:11;;;;;;;11.32;5.05;;;;;;;3.54;78.31;103407.38;5071300;28;20154;-78
2024/01/27 01:15:37;;;;;;;15.93;5.18;;;;;;;3.55;78.88;103406.56;5070503;28;20024;-78
2024/01/27 01:18:03;;;;;;;25.40;5.63;;;;;;;3.58;78.98;103414.47;5066461;28;20029;-78
2024/01/27 01:20:29;;;;;;;12.57;5.78;;;;;;;3.60;79.47;103419.78;5074213;28;20043;-78
2024/01/27 01:22:55;;;;;;;10.77;5.38;;;;;;;3.61;79.23;103418.91;5078909;28;20024;-78
2024/01/27 01:25:20;;;;;;;19.77;5.55;;;;;;;3.56;79.20;103422.28;5071079;28;20115;-78
2024/01/27 01:27:46;;;;;;;15.25;5.78;;;;;;;3.54;79.36;103412.59;5073009;28;20292;-79
2024/01/27 01:30:12;;;;;;;14.88;5.45;;;;;;;3.61;79.35;103409.34;5071647;28;20024;-78
2024/01/27 01:32:37;;;;;;;14.52;5.53;;;;;;;3.56;79.77;103422.28;5069956;28;20024;-79
2024/01/27 01:35:03;;;;;;;10.88;5.10;;;;;;;3.55;79.56;103424.88;5073956;28;20104;-79
2024/01/27 01:37:29;;;;;;;16.75;5.47;;;;;;;3.55;79.73;103417.91;5079976;28;20107;-78
2024/01/27 01:39:54;;;;;;;13.57;5.68;;;;;;;3.60;79.58;103412.81;5071811;28;20043;-79
2024/01/27 01:42:23;;;;;;;18.33;6.50;;;;;;;3.60;79.31;103406.69;5069659;28;20108;-78
2024/01/27 01:44:48;;;;;;;19.15;6.65;;;;;;;3.60;79.54;103404.06;5069716;28;20036;-78
2024/01/27 01:47:14;;;;;;;15.63;5.55;;;;;;;3.55;79.14;103410.06;5070535;28;20388;-78
2024/01/27 01:49:40;;;;;;;16.02;5.93;;;;;;;3.50;79.16;103416.00;5078782;28;20089;-76
2024/01/27 01:52:05;;;;;;;14.93;5.45;;;;;;;3.55;79.10;103415.28;5072184;28;20028;-75
2024/01/27 01:54:32;;;;;;;11.32;5.43;;;;;;;3.51;79.43;103416.03;5072852;28;20062;-76
2024/01/27 01:56:58;;;;;;;18.42;6.10;;;;;;;3.44;79.21;103427.13;5073218;28;20059;-75
2024/01/27 01:59:24;;;;;;;14.88;5.65;;;;;;;3.42;79.54;103423.59;5064722;28;20050;-78
2024/01/27 02:01:49;;;;;;;15.63;6.88;;;;;;;3.48;79.26;103426.38;5077138;28;20055;-78
2024/01/27 02:04:14;;;;;;;19.80;5.65;;;;;;;3.50;79.34;103421.22;5069476;28;20033;-78
2024/01/27 02:06:40;;;;;;;13.20;6.03;;;;;;;3.51;79.28;103423.00;5065625;28;20036;-78
2024/01/27 02:09:05;;;;;;;13.43;5.95;;;;;;;3.49;79.42;103414.19;5069629;28;20032;-75
2024/01/27 02:11:30;;;;;;;18.42;5.80;;;;;;;3.48;79.00;103429.00;5068131;28;20028;-75
2024/01/27 02:13:56;;;;;;;12.73;5.60;;;;;;;3.47;79.04;103419.38;5071536;28;20172;-75
2024/01/27 02:16:21;;;;;;;15.88;6.47;;;;;;;3.45;79.10;103428.94;5069033;28;20027;-75
2024/01/27 02:18:47;;;;;;;15.23;5.82;;;;;;;3.41;79.41;103427.06;5067979;28;20035;-75
2024/01/27 02:21:12;;;;;;;16.17;6.30;;;;;;;3.38;79.41;103416.47;5070630;28;20494;-75
2024/01/27 02:23:38;;;;;;;14.35;5.90;;;;;;;3.16;80.18;103424.50;5069279;28;20047;-75
2024/01/27 02:26:03;;;;;;;16.95;6.43;;;;;;;3.13;80.07;103437.47;5065689;28;20032;-75
2024/01/27 02:28:31;;;;;;;15.75;6.22;;;;;;;3.07;80.43;103428.56;5072785;28;20028;-76
2024/01/27 02:30:57;;;;;;;10.07;5.20;;;;;;;3.12;80.45;103435.69;5071663;28;20024;-76
2024/01/27 02:33:23;;;;;;;14.35;6.38;;;;;;;3.09;80.22;103440.81;5067683;28;20460;-75
2024/01/27 02:35:48;;;;;;;16.75;7.25;;;;;;;3.00;81.07;103438.81;5069862;28;20116;-76
2024/01/27 02:38:13;;;;;;;14.65;6.60;;;;;;;3.02;81.44;103437.09;5073980;28;20032;-75
2024/01/27 02:40:39;;;;;;;18.83;6.93;;;;;;;3.06;81.12;103437.25;5071232;28;20048;-75
2024/01/27 02:43:04;;;;;;;17.05;7.60;;;;;;;3.09;81.21;103433.88;5070033;28;20387;-75
2024/01/27 02:45:30;;;;;;;16.95;7.18;;;;;;;3.04;80.91;103428.50;5066969;28;20119;-75
2024/01/27 02:47:55;;;;;;;16.20;6.78;;;;;;;3.04;80.67;103430.22;5078706;28;20522;-75
2024/01/27 02:50:20;;;;;;;19.35;6.35;;;;;;;3.04;80.91;103428.50;5075037;28;20012;-76
2024/01/27 02:52:45;;;;;;;16.00;7.28;;;;;;;3.04;80.71;103433.72;5070272;28;20051;-75
2024/01/27 02:55:11;;;;;;;18.90;6.88;;;;;;;3.00;80.92;103426.63;5071833;28;20055;-76
2024/01/27 02:57:37;;;;;;;15.98;6.03;;;;;;;3.01;80.71;103419.66;5070254;28;20301;-75
2024/01/27 03:00:03;;;;;;;20.85;7.38;;;;;;;2.96;80.81;103424.75;5068005;28;20565;-75
2024/01/27 03:02:28;;;;;;;19.55;7.10;;;;;;;2.95;80.88;103432.53;5073155;28;20044;-76
2024/01/27 03:04:53;;;;;;;17.73;6.72;;;;;;;3.01;80.87;103422.28;5067355;28;20073;-75
2024/01/27 03:07:19;;;;;;;19.25;7.03;;;;;;;2.97;80.84;103425.63;5073977;28;20126;-75
2024/01/27 03:09:44;;;;;;;16.55;7.20;;;;;;;2.97;80.61;103441.28;5070041;28;20075;-75
2024/01/27 03:12:09;;;;;;;14.35;6.88;;;;;;;2.90;80.41;103434.09;5067517;28;20027;-76
2024/01/27 03:14:35;;;;;;;15.57;6.93;;;;;;;2.92;80.52;103432.41;5072015;28;20013;-76
2024/01/27 03:17:00;;;;;;;18.40;7.55;;;;;;;2.91;80.61;103428.94;5072411;28;20030;-75
2024/01/27 03:19:26;;;;;;;14.65;6.35;;;;;;;2.90;80.42;103447.19;5072114;28;20149;-78
2024/01/27 03:21:51;;;;;;;19.50;7.25;;;;;;;2.84;80.30;103432.16;5074880;28;20059;-78
2024/01/27 03:24:17;;;;;;;12.52;6.88;;;;;;;2.83;81.08;103437.34;5065429;28;20048;-78
2024/01/27 03:26:42;;;;;;;19.13;8.45;;;;;;;2.84;80.91;103436.50;5071446;28;20024;-78
2024/01/27 03:29:07;;;;;;;22.98;7.18;;;;;;;2.80;80.37;103432.91;5069176;28;20368;-78
2024/01/27 03:31:36;;;;;;;12.55;6.60;;;;;;;2.81;81.11;103442.53;5067134;28;20506;-78
2024/01/27 03:34:02;;;;;;;13.00;6.57;;;;;;;2.83;80.58;103438.22;5074370;28;20024;-78
2024/01/27 03:36:28;;;;;;;17.77;7.47;;;;;;;2.89;80.52;103430.63;5064757;28;20107;-78
2024/01/27 03:38:54;;;;;;;17.50;6.60;;;;;;;2.84;80.36;103429.53;5069628;28;20023;-78
2024/01/27 03:41:19;;;;;;;14.52;7.18;;;;;;;2.86;80.27;103427.88;5063466;28;20029;-78
2024/01/27 03:43:45;;;;;;;14.40;5.82;;;;;;;2.86;80.02;103433.13;5064864;28;20047;-78
2024/01/27 03:46:10;;;;;;;14.00;6.85;;;;;;;2.87;80.19;103427.03;5065986;28;20070;-78
2024/01/27 03:48:35;;;;;;;14.25;6.60;;;;;;;2.84;80.23;103440.00;5074401;28;20075;-78
2024/01/27 03:51:01;;;;;;;17.38;6.50;;;;;;;2.83;80.40;103433.00;5061243;28;20513;-78
2024/01/27 03:53:27;;;;;;;20.15;7.72;;;;;;;2.84;80.16;103424.31;5066075;28;20029;-78
2024/01/27 03:55:53;;;;;;;16.67;6.55;;;;;;;2.90;80.50;103440.22;5076839;28;20131;-78
2024/01/27 03:58:18;;;;;;;17.88;7.35;;;;;;;2.88;80.01;103444.50;5069451;28;20345;-78
2024/01/27 04:00:44;;;;;;;13.82;6.60;;;;;;;2.86;80.53;103432.22;5066888;28;20040;-78
2024/01/27 04:03:09;;;;;;;14.18;6.88;;;;;;;2.88;79.90;103428.81;5073003;28;20488;-78
2024/01/27 04:05:35;;;;;;;16.92;7.05;;;;;;;2.86;80.01;103440.94;5069380;28;20540;-78
2024/01/27 04:08:00;;;;;;;18.88;7.10;;;;;;;2.87;80.01;103442.72;5068675;28;20551;-78
2024/01/27 04:10:26;;;;;;;14.70;6.68;;;;;;;2.84;79.88;103450.44;5076498;28;20024;-78
2024/01/27 04:12:51;;;;;;;13.63;6.53;;;;;;;2.86;79.82;103450.53;5078016;28;20024;-78
2024/01/27 04:15:16;;;;;;;10.43;6.22;;;;;;;2.83;80.07;103448.69;5071373;28;20111;-78
2024/01/27 04:17:42;;;;;;;16.23;8.00;;;;;;;2.77;80.51;103454.59;5070887;28;20055;-78
2024/01/27 04:20:08;;;;;;;16.77;6.85;;;;;;;2.77;80.56;103443.25;5072505;28;20384;-78
2024/01/27 04:22:34;;;;;;;14.30;7.20;;;;;;;2.84;80.12;103447.81;5073562;28;20035;-78
2024/01/27 04:25:00;;;;;;;23.35;7.18;;;;;;;2.66;80.55;103447.19;5079278;28;20024;-78
2024/01/27 04:27:29;;;;;;;15.93;6.78;;;;;;;2.67;80.55;103438.56;5073036;28;20112;-78
2024/01/27 04:29:54;;;;;;;13.70;6.55;;;;;;;2.65;80.47;103442.81;5075824;28;20059;-76
2024/01/27 04:32:21;;;;;;;16.75;7.00;;;;;;;2.71;80.37;103440.44;5072200;28;20055;-76
2024/01/27 04:34:46;;;;;;;16.00;7.10;;;;;;;2.64;80.32;103433.22;5074027;28;20016;-76
2024/01/27 04:37:12;;;;;;;19.08;7.28;;;;;;;2.67;80.34;103444.66;5070258;28;20114;-76
2024/01/27 04:39:37;;;;;;;15.13;6.82;;;;;;;2.64;80.47;103441.94;5073667;28;20035;-76
2024/01/27 04:42:03;;;;;;;17.60;7.55;;;;;;;2.67;80.38;103438.56;5073752;28;20455;-76
2024/01/27 04:44:28;;;;;;;12.95;6.82;;;;;;;2.61;80.68;103443.53;5062622;28;20123;-76
2024/01/27 04:46:53;;;;;;;18.55;7.15;;;;;;;2.54;81.54;103448.56;5070700;28;20035;-76
2024/01/27 04:49:19;;;;;;;14.32;6.85;;;;;;;2.65;81.10;103455.88;5068445;28;20031;-76
2024/01/27 04:51:45;;;;;;;15.52;6.85;;;;;;;2.68;80.86;103448.16;5072028;28;20112;-76
2024/01/27 04:54:10;;;;;;;15.13;6.55;;;;;;;2.63;80.88;103447.13;5066961;28;20077;-76
2024/01/27 04:56:36;;;;;;;21.42;7.25;;;;;;;2.70;80.68;103449.97;5069114;28;20061;-76
2024/01/27 04:59:02;;;;;;;18.30;7.18;;;;;;;2.69;80.67;103448.19;5067335;28;20204;-76
2024/01/27 05:01:27;;;;;;;15.60;7.22;;;;;;;2.65;80.79;103450.66;5066190;28;20047;-76
2024/01/27 05:03:52;;;;;;;15.73;7.28;;;;;;;2.62;80.71;103450.56;5064060;28;20020;-76
2024/01/27 05:06:18;;;;;;;20.70;7.88;;;;;;;2.64;80.88;103443.66;5079180;28;20307;-76
2024/01/27 05:08:43;;;;;;;13.50;7.00;;;;;;;2.60;80.70;103457.44;5064407;28;20021;-76
2024/01/27 05:11:09;;;;;;;16.67;7.60;;;;;;;2.58;80.53;103443.47;5072922;28;20388;-76
2024/01/27 05:13:34;;;;;;;12.35;6.90;;;;;;;2.58;81.01;103446.06;5064561;28;20115;-76
2024/01/27 05:16:00;;;;;;;17.92;6.93;;;;;;;2.60;80.61;103447.00;5070242;28;20173;-76
2024/01/27 05:18:26;;;;;;;14.30;7.55;;;;;;;2.48;80.70;103455.31;5068664;28;20028;-76
2024/01/27 05:20:51;;;;;;;15.07;7.10;;;;;;;2.38;81.15;103451.50;5077535;28;20054;-76
2024/01/27 05:23:17;;;;;;;13.40;6.72;;;;;;;2.44;80.66;103453.44;5062521;28;20475;-76
2024/01/27 05:25:42;;;;;;;14.35;7.05;;;;;;;2.33;81.10;103439.97;5060315;28;20024;-76
2024/01/27 05:28:07;;;;;;;13.77;7.30;;;;;;;2.33;81.13;103445.19;5064138;28;20021;-76
2024/01/27 05:30:33;;;;;;;16.45;7.43;;;;;;;2.50;81.10;103448.41;5070494;28;20035;-76
2024/01/27 05:32:58;;;;;;;14.73;7.13;;;;;;;2.44;81.27;103445.59;5063607;28;20527;-76
2024/01/27 05:35:23;;;;;;;17.55;7.68;;;;;;;2.30;81.91;103446.00;5072180;28;20194;-76
2024/01/27 05:37:50;;;;;;;11.98;7.25;;;;;;;2.35;81.87;103446.16;5070191;28;20111;-76
2024/01/27 05:40:16;;;;;;;15.10;8.55;;;;;;;2.16;82.50;103443.72;5072336;28;20023;-76
2024/01/27 05:42:42;;;;;;;15.95;8.50;;;;;;;2.16;82.85;103428.06;5070445;28;20032;-76
2024/01/27 05:45:10;;;;;;;16.70;8.45;;;;;;;2.22;82.24;103433.50;5078590;28;20097;-76
2024/01/27 05:47:35;;;;;;;19.17;8.85;;;;;;;2.14;82.45;103421.88;5071467;28;20287;-76
2024/01/27 05:50:00;;;;;;;16.15;7.57;;;;;;;2.15;82.52;103421.06;5078602;28;20440;-76
2024/01/27 05:52:26;;;;;;;18.98;8.57;;;;;;;2.21;82.27;103424.78;5073778;28;20028;-76
2024/01/27 05:54:52;;;;;;;17.25;8.45;;;;;;;2.13;82.68;103428.81;5072156;28;20025;-76
2024/01/27 05:57:17;;;;;;;12.75;8.27;;;;;;;2.12;82.71;103419.22;5075092;28;20368;-76
2024/01/27 05:59:42;;;;;;;12.85;8.52;;;;;;;2.10;82.36;103418.28;5072646;28;20081;-76
2024/01/27 06:02:07;;;;;;;16.83;7.95;;;;;;;2.08;82.45;103419.94;5074519;28;20044;-76
2024/01/27 06:04:34;;;;;;;13.60;7.68;;;;;;;2.08;82.34;103426.88;5077495;28;20480;-76
2024/01/27 06:07:00;;;;;;;18.08;8.80;;;;;;;2.04;82.46;103433.69;5075806;28;20774;-76
2024/01/27 06:09:25;;;;;;;12.30;8.00;;;;;;;2.03;82.79;103429.31;5077482;28;20024;-76
2024/01/27 06:11:50;;;;;;;16.90;8.07;;;;;;;2.01;82.87;103429.28;5073208;28;20218;-76
2024/01/27 06:14:16;;;;;;;16.58;8.93;;;;;;;2.01;83.71;103420.56;5080999;28;20016;-76
2024/01/27 06:16:41;;;;;;;19.58;7.70;;;;;;;2.07;83.05;103427.72;5074819;28;20020;-76
2024/01/27 06:19:06;;;;;;;22.55;9.52;;;;;;;2.01;83.76;103424.06;5077823;28;20020;-76
2024/01/27 06:21:31;;;;;;;22.05;8.45;;;;;;;2.14;84.07;103425.38;5078517;28;20051;-76
2024/01/27 06:23:57;;;;;;;21.65;8.70;;;;;;;2.20;83.51;103435.16;5068940;28;20473;-76
2024/01/27 06:26:22;;;;;;;18.85;9.25;;;;;;;2.18;83.61;103429.88;5068498;28;20040;-76
2024/01/27 06:28:47;;;;;;;18.73;8.82;;;;;;;2.37;82.91;103443.59;5064090;28;20062;-76
2024/01/27 06:31:14;;;;;;;18.92;9.82;;;;;;;2.39;82.77;103440.22;5071484;28;20064;-76
2024/01/27 06:33:40;;;;;;;18.50;10.07;;;;;;;2.46;82.76;103436.97;5066306;28;20528;-76
2024/01/27 06:36:05;;;;;;;18.77;9.18;;;;;;;2.41;83.11;103432.41;5067574;28;20107;-76
2024/01/27 06:38:31;;;;;;;16.52;8.95;;;;;;;2.43;82.47;103431.66;5073948;28;20021;-76
2024/01/27 06:40:57;;;;;;;14.10;8.52;;;;;;;2.45;82.29;103431.69;5067723;28;20356;-76
2024/01/27 06:43:22;;;;;;;18.70;8.30;;;;;;;2.37;82.31;103434.03;5072348;28;20038;-76
2024/01/27 06:45:48;;;;;;;19.65;8.23;;;;;;;2.28;81.84;103431.09;5077130;28;20538;-76
2024/01/27 06:48:13;;;;;;;16.58;8.23;;;;;;;2.23;81.36;103443.09;5082299;28;20032;-76
2024/01/27 06:50:39;;;;;;;19.17;8.30;;;;;;;2.15;81.57;103445.44;5066825;28;20071;-76
2024/01/27 06:53:04;;;;;;;14.95;8.80;;;;;;;2.07;81.03;103441.66;5070471;28;20023;-76
2024/01/27 06:55:29;;;;;;;18.70;7.97;;;;;;;1.89;81.51;103444.47;5063567;28;20071;-76
2024/01/27 06:57:55;;;;;;;13.77;7.78;;;;;;;1.80;82.37;103454.56;5073692;28;20371;-76
2024/01/27 07:00:20;;;;;;;18.20;8.02;;;;;;;1.76;82.31;103460.47;5068992;28;20024;-76
2024/01/27 07:02:46;;;;;;;15.40;8.73;;;;;;;1.74;82.08;103469.97;5073488;28;20024;-76
2024/01/27 07:05:12;;;;;;;17.63;8.35;;;;;;;1.73;82.41;103478.63;5080799;28;20107;-76
2024/01/27 07:07:37;;;;;;;21.50;8.02;;;;;;;1.70;82.28;103479.38;5073797;28;20430;-76
2024/01/27 07:10:03;;;;;;;21.25;9.15;;;;;;;1.79;82.74;103476.25;5071581;28;20036;-76
2024/01/27 07:12:28;;;;;;;18.17;8.60;;;;;;;1.86;82.27;103474.75;5078466;28;20024;-75
2024/01/27 07:14:57;;;;;;;19.00;9.68;;;;;;;1.88;82.86;103489.66;5076787;28;20033;-75
2024/01/27 07:17:22;;;;;;;19.67;9.32;;;;;;;1.91;83.32;103481.94;5076425;28;20032;-75
2024/01/27 07:19:47;;;;;;;15.43;8.38;;;;;;;1.98;83.33;103483.06;5078817;28;20034;-75
2024/01/27 07:22:13;;;;;;;23.95;9.20;;;;;;;2.05;83.96;103474.59;5076982;28;20029;-75
2024/01/27 07:24:38;;;;;;;17.90;10.48;;;;;;;2.12;84.19;103476.63;5070990;28;20020;-76
2024/01/27 07:27:04;;;;;;;20.38;10.73;;;;;;;2.19;84.18;103488.16;5070794;28;20028;-75
2024/01/27 07:29:30;;;;;;;23.85;10.88;;;;;;;2.24;84.52;103479.72;5067409;28;20093;-76
2024/01/27 07:31:55;;;;;;;18.42;10.10;;;;;;;2.34;84.07;103480.03;5071349;28;20020;-75
2024/01/27 07:34:21;;;;;;;26.02;9.50;;;;;;;2.37;83.62;103486.25;5071882;28;20439;-75
2024/01/27 07:36:49;;;;;;;23.40;10.02;;;;;;;2.40;83.50;103486.34;5079645;28;20407;-75
2024/01/27 07:39:14;;;;;;;20.65;9.57;;;;;;;2.41;82.96;103490.75;5078759;28;20024;-75
2024/01/27 07:41:39;;;;;;;21.63;10.32;;;;;;;2.37;83.61;103491.47;5074830;28;20351;-75
2024/01/27 07:44:13;;;;;;;25.98;9.85;;;;;;;2.45;83.84;103490.03;5057446;28;20365;-75
2024/01/27 07:46:39;;;;;;;18.98;9.93;;;;;;;2.51;83.53;103497.19;5070633;28;20028;-75
2024/01/27 07:49:06;;;;;;;26.50;9.20;;;;;;;2.64;83.00;103501.13;5065104;28;20023;-75
2024/01/27 07:51:31;;;;;;;23.05;9.27;;;;;;;2.67;82.65;103501.25;5070650;28;20092;-75
2024/01/27 07:53:57;;;;;;;20.40;9.02;;;;;;;2.69;83.37;103499.56;5071608;28;20021;-76
2024/01/27 07:56:22;;;;;;;16.67;9.23;;;;;;;2.69;83.02;103495.22;5073638;28;20051;-75
2024/01/27 07:58:47;;;;;;;24.13;9.55;;;;;;;2.72;82.86;103504.91;5065947;28;20048;-75
2024/01/27 08:01:16;;;;;;;15.77;8.50;;;;;;;2.84;82.46;103499.19;5062144;28;20052;-77
2024/01/27 08:03:42;;;;;;;21.30;8.98;;;;;;;2.75;83.28;103508.53;5065127;28;20385;-77
2024/01/27 08:06:14;;;;;;;20.10;9.35;;;;;;;2.79;83.25;103497.31;5074832;28;20032;-77
2024/01/27 08:08:40;;;;;;;20.92;8.25;;;;;;;2.80;83.17;103500.84;5072222;28;20047;-77
2024/01/27 08:11:05;;;;;;;24.10;8.35;;;;;;;2.83;83.08;103489.59;5076096;28;20403;-77
2024/01/27 08:13:30;;;;;;;17.48;9.30;;;;;;;2.80;83.69;103493.00;5074182;28;20053;-77
2024/01/27 08:15:55;;;;;;;21.67;8.80;;;;;;;2.90;83.21;103481.13;5074246;28;20028;-77
2024/01/27 08:18:21;;;;;;;18.88;8.75;;;;;;;2.96;82.96;103490.06;5069516;28;20020;-77
2024/01/27 08:20:46;;;;;;;23.02;8.65;;;;;;;3.02;83.17;103497.22;5072367;28;20111;-77
2024/01/27 08:23:12;;;;;;;16.75;8.65;;;;;;;3.11;82.70;103494.91;5065248;28;20032;-77
2024/01/27 08:25:37;;;;;;;25.98;9.75;;;;;;;3.54;82.72;103493.69;5073336;28;20058;-77
2024/01/27 08:28:03;;;;;;;20.50;10.45;;;;;;;4.24;81.22;103498.44;5069229;28;20494;-77
2024/01/27 08:30:28;;;;;;;17.20;10.60;;;;;;;4.98;80.12;103489.94;5074091;28;20588;-77
2024/01/27 08:32:53;;;;;;;20.17;9.60;;;;;;;5.84;77.22;103485.00;5062553;28;20143;-77
2024/01/27 08:35:19;;;;;;;16.45;8.60;;;;;;;6.55;75.66;103477.75;5063823;28;20104;-77
2024/01/27 08:37:44;;;;;;;15.70;7.82;;;;;;;6.89;71.93;103486.22;5074318;28;20051;-77
2024/01/27 08:40:10;;;;;;;14.95;7.20;;;;;;;7.09;69.53;103481.34;5073627;28;20024;-77
2024/01/27 08:42:35;;;;;;;14.07;7.30;;;;;;;7.36;68.99;103479.13;5074197;28;20383;-77
2024/01/27 08:45:00;;;;;;;19.95;7.22;;;;;;;7.53;70.04;103492.56;5068423;28;20107;-76
2024/01/27 08:47:25;;;;;;;18.23;7.03;;;;;;;7.46;67.29;103489.78;5064229;28;20173;-77
2024/01/27 08:49:51;;;;;;;13.82;7.63;;;;;;;7.09;67.57;103492.75;5069570;28;20024;-77
2024/01/27 08:52:16;;;;;;;19.88;7.93;;;;;;;7.08;68.13;103495.31;5069814;28;20028;-77
2024/01/27 08:54:41;;;;;;;14.27;8.18;;;;;;;7.16;67.90;103499.84;5075370;28;20027;-77
2024/01/27 08:57:07;;;;;;;16.05;7.45;;;;;;;7.12;67.98;103491.88;5076084;28;20486;-77
2024/01/27 08:59:32;;;;;;;20.10;8.57;;;;;;;7.12;68.46;103503.28;5075496;28;20047;-76
2024/01/27 09:01:58;;;;;;;14.52;7.03;;;;;;;7.79;67.12;103511.38;5077614;28;20381;-76
2024/01/27 09:04:23;;;;;;;14.88;7.32;;;;;;;8.35;66.68;103505.97;5066599;28;20040;-76
2024/01/27 09:06:48;;;;;;;13.27;5.72;;;;;;;8.67;62.76;103498.44;5071667;28;20029;-76
2024/01/27 09:09:14;;;;;;;11.63;6.15;;;;;;;8.23;63.33;103504.91;5066059;28;20476;-76
2024/01/27 09:11:39;;;;;;;12.25;5.97;;;;;;;8.27;64.79;103509.38;5067089;28;20027;-76
2024/01/27 09:14:07;;;;;;;17.27;5.93;;;;;;;7.84;65.27;103519.34;5077231;28;20027;-76
2024/01/27 09:16:32;;;;;;;15.68;6.88;;;;;;;7.97;64.69;103515.09;5078211;28;20028;-77
2024/01/27 09:18:57;;;;;;;13.02;6.15;;;;;;;8.18;65.31;103512.78;5069907;28;20029;-77
2024/01/27 09:21:28;;;;;;;16.23;6.53;;;;;;;8.42;64.76;103513.09;5075426;28;20036;-77
2024/01/27 09:23:56;;;;;;;17.50;6.35;;;;;;;9.02;63.93;103521.63;5074744;28;20115;-77
2024/01/27 09:26:22;;;;;;;16.52;6.20;;;;;;;8.66;62.06;103522.16;5075201;28;20032;-76
2024/01/27 09:28:53;;;;;;;12.95;5.60;;;;;;;8.43;63.96;103517.50;5070910;28;20020;-76
2024/01/27 09:31:23;;;;;;;13.10;6.15;;;;;;;8.44;63.79;103526.31;5062145;28;20060;-77
2024/01/27 09:33:53;;;;;;;14.77;5.82;;;;;;;9.16;64.36;103532.31;5075215;28;20024;-77
2024/01/27 09:36:19;;;;;;;15.68;6.18;;;;;;;10.59;60.90;103537.63;5080615;28;20471;-77
2024/01/27 09:38:45;;;;;;;11.50;5.75;;;;;;;11.93;55.75;103546.50;5076942;28;20023;-77
2024/01/27 09:41:14;;;;;;;14.98;6.15;;;;;;;12.89;53.30;103543.44;5069886;28;20388;-77
2024/01/27 09:43:47;;;;;;;15.55;5.93;;;;;;;13.89;51.90;103547.91;5070248;28;20500;-77
2024/01/27 09:46:13;;;;;;;12.55;6.18;;;;;;;13.90;50.14;103547.03;5071152;28;20037;-78
2024/01/27 09:48:39;;;;;;;13.77;5.75;;;;;;;12.69;52.26;103548.88;5076019;28;20028;-78
2024/01/27 09:51:07;;;;;;;14.07;5.30;;;;;;;12.39;51.93;103541.03;5088352;28;20035;-78
2024/01/27 09:53:32;;;;;;;16.60;5.50;;;;;;;12.42;52.35;103549.00;5081025;28;20031;-77
2024/01/27 09:55:58;;;;;;;12.48;6.53;;;;;;;12.47;53.27;103548.09;5070829;28;20384;-78
2024/01/27 09:58:27;;;;;;;14.05;5.55;;;;;;;12.45;52.99;103552.53;5075678;28;20058;-77
2024/01/27 10:00:56;;;;;;;13.65;6.95;;;;;;;12.64;52.51;103555.97;5072956;28;20411;-79
2024/01/27 10:03:26;;;;;;;14.18;4.97;;;;;;;13.87;51.08;103563.88;5073856;28;20471;-78
2024/01/27 10:05:57;;;;;;;15.82;6.25;;;;;;;14.31;47.91;103573.13;5073604;28;20390;-77
2024/01/27 10:08:23;;;;;;;10.77;4.90;;;;;;;14.56;48.52;103572.88;5066431;28;20059;-78
2024/01/27 10:10:56;;;;;;;12.05;6.20;;;;;;;15.05;48.30;103571.25;5068569;28;20308;-80
2024/01/27 10:13:28;;;;;;;18.75;5.70;;;;;;;15.07;45.14;103562.41;5075723;28;20028;-79
2024/01/27 10:16:04;;;;;;;14.23;5.43;;;;;;;15.89;47.41;103562.78;5070869;28;20029;-79
2024/01/27 10:18:30;;;;;;;15.95;5.65;;;;;;;16.46;42.67;103567.84;5061837;28;20520;-79
2024/01/27 10:20:56;;;;;;;13.00;5.43;;;;;;;17.85;43.47;103568.06;5080080;28;20021;-76
2024/01/27 10:23:21;;;;;;;9.90;4.68;;;;;;;17.64;41.14;103557.06;5075531;28;20028;-77
2024/01/27 10:25:47;;;;;;;11.70;4.38;;;;;;;16.72;40.58;103562.84;5072818;28;20029;-77
2024/01/27 10:28:12;;;;;;;11.90;4.38;;;;;;;16.94;44.26;103559.69;5097409;28;20380;-77
2024/01/27 10:30:37;;;;;;;11.95;5.18;;;;;;;16.67;42.06;103547.81;5079352;28;20028;-77
2024/01/27 10:33:03;;;;;;;15.38;5.05;;;;;;;17.63;41.42;103556.19;5070201;28;20028;-77
2024/01/27 10:35:29;;;;;;;14.02;4.95;;;;;;;18.23;39.49;103557.22;5066977;28;20028;-77
2024/01/27 10:37:55;;;;;;;11.25;4.90;;;;;;;18.93;39.07;103559.56;5065101;28;20025;-77
2024/01/27 10:40:24;;;;;;;12.15;5.45;;;;;;;20.02;38.57;103570.19;5070858;28;20032;-77
2024/01/27 10:43:02;;;;;;;12.45;4.95;;;;;;;20.98;37.02;103557.53;5065514;28;20056;-77
2024/01/27 10:45:39;;;;;;;8.73;4.28;;;;;;;21.37;34.68;103568.50;5079825;28;20024;-77
2024/01/27 10:48:06;;;;;;;13.27;4.88;;;;;;;22.05;33.75;103569.97;5066530;28;20033;-77
2024/01/27 10:50:37;;;;;;;12.05;4.57;;;;;;;22.56;34.91;103559.56;5082803;28;20452;-77
2024/01/27 10:53:04;;;;;;;11.38;4.70;;;;;;;22.87;32.76;103554.44;5062683;28;20020;-77
2024/01/27 10:55:31;;;;;;;14.07;4.90;;;;;;;22.06;34.52;103557.38;5087722;28;20388;-77
2024/01/27 10:57:58;;;;;;;11.43;4.78;;;;;;;21.36;35.34;103548.78;5066277;28;20107;-77
2024/01/27 11:00:26;;;;;;;13.38;5.00;;;;;;;20.16;34.67;103541.00;5072372;28;20472;-77
2024/01/27 11:02:54;;;;;;;14.60;5.40;;;;;;;20.53;35.98;103545.00;5068130;28;20028;-77
2024/01/27 11:05:21;;;;;;;11.80;5.20;;;;;;;21.22;33.47;103540.38;5081647;28;20016;-77
2024/01/27 11:07:47;;;;;;;12.75;4.63;;;;;;;22.14;34.12;103536.38;5067382;28;20024;-77
2024/01/27 11:10:12;;;;;;;12.05;4.93;;;;;;;22.42;31.96;103528.72;5074301;28;20031;-77
2024/01/27 11:12:38;;;;;;;11.70;4.97;;;;;;;22.19;32.08;103533.47;5073134;28;20390;-77
2024/01/27 11:15:04;;;;;;;11.00;4.68;;;;;;;21.56;33.92;103533.59;5079754;28;20027;-77
2024/01/27 11:17:41;;;;;;;9.52;4.28;;;;;;;22.40;35.63;103536.03;5071643;28;20036;-77